createdAt,value
2022-08-06T00:00:13.169Z,99258.00
2022-08-06T00:02:44.303Z,99244.00
2022-08-06T00:05:18.061Z,99240.00
2022-08-06T00:08:01.868Z,99237.00
2022-08-06T00:10:33.256Z,99243.00
2022-08-06T00:13:06.707Z,99245.00
2022-08-06T00:16:08.679Z,99245.00
2022-08-06T00:18:37.174Z,99247.00
2022-08-06T00:21:12.432Z,99232.00
2022-08-06T00:23:59.477Z,99243.00
2022-08-06T00:26:30.364Z,99242.00
2022-08-06T00:29:01.316Z,99243.00
2022-08-06T00:31:36.099Z,99254.00
2022-08-06T00:34:11.849Z,99248.00
2022-08-06T00:36:44.710Z,99250.00
2022-08-06T00:39:19.519Z,99243.00
2022-08-06T00:41:50.726Z,99240.00
2022-08-06T00:44:30.610Z,99267.00
2022-08-06T00:47:02.396Z,99245.00
2022-08-06T00:49:48.930Z,99243.00
2022-08-06T00:52:21.216Z,99251.00
2022-08-06T00:54:52.581Z,99253.00
2022-08-06T00:57:26.879Z,99256.00
2022-08-06T01:00:01.547Z,99262.00
2022-08-06T01:02:33.486Z,99264.00
2022-08-06T01:05:33.626Z,99268.00
2022-08-06T01:07:56.646Z,99260.00
2022-08-06T01:10:42.270Z,99273.00
2022-08-06T01:13:25.659Z,99267.00
2022-08-06T01:16:29.450Z,99275.00
2022-08-06T01:19:50.614Z,99265.00
2022-08-06T01:22:56.309Z,99270.00
2022-08-06T01:26:19.998Z,99271.00
2022-08-06T01:28:55.984Z,99269.00
2022-08-06T01:31:46.085Z,99276.00
2022-08-06T01:34:34.924Z,99282.00
2022-08-06T01:37:38.405Z,99280.00
2022-08-06T01:40:23.753Z,99283.00
2022-08-06T01:42:58.918Z,99289.00
2022-08-06T01:45:52.704Z,99271.00
2022-08-06T01:48:28.621Z,99274.00
2022-08-06T01:51:03.848Z,99282.00
2022-08-06T01:54:02.623Z,99281.00
2022-08-06T01:56:57.140Z,99277.00
2022-08-06T01:59:36.889Z,99283.00
2022-08-06T02:02:18.480Z,99279.00
2022-08-06T02:04:53.726Z,99285.00
2022-08-06T02:08:39.281Z,99299.00
2022-08-06T02:10:23.813Z,99291.00
2022-08-06T02:12:56.080Z,99287.00
2022-08-06T02:15:56.566Z,99288.00
2022-08-06T02:18:34.224Z,99287.00
2022-08-06T02:21:31.987Z,99286.00
2022-08-06T02:24:07.850Z,99289.00
2022-08-06T02:26:41.453Z,99283.00
2022-08-06T02:29:17.884Z,99290.00
2022-08-06T02:31:50.604Z,99292.00
2022-08-06T02:34:27.106Z,99293.00
2022-08-06T02:38:01.547Z,99295.00
2022-08-06T02:40:39.992Z,99291.00
2022-08-06T02:43:21.407Z,99292.00
2022-08-06T02:46:15.097Z,99289.00
2022-08-06T02:49:01.078Z,99306.00
2022-08-06T02:52:10.649Z,99294.00
2022-08-06T02:54:46.409Z,99298.00
2022-08-06T02:57:37.876Z,99304.00
2022-08-06T03:00:29.340Z,99295.00
2022-08-06T03:03:03.820Z,99298.00
2022-08-06T03:05:54.499Z,99308.00
2022-08-06T03:08:29.554Z,99305.00
2022-08-06T03:11:02.979Z,99306.00
2022-08-06T03:13:36.500Z,99313.00
2022-08-06T03:16:23.172Z,99307.00
2022-08-06T03:19:55.655Z,99307.00
2022-08-06T03:21:57.299Z,99306.00
2022-08-06T03:24:29.500Z,99300.00
2022-08-06T03:27:02.522Z,99313.00
2022-08-06T03:29:35.327Z,99321.00
2022-08-06T03:32:13.482Z,99308.00
2022-08-06T03:34:57.579Z,99311.00
2022-08-06T03:37:59.604Z,99309.00
2022-08-06T03:40:21.004Z,99323.00
2022-08-06T03:42:53.374Z,99331.00
2022-08-06T03:45:45.593Z,99334.00
2022-08-06T03:48:32.701Z,99337.00
2022-08-06T03:51:13.632Z,99337.00
2022-08-06T03:53:49.982Z,99330.00
2022-08-06T03:56:29.881Z,99340.00
2022-08-06T03:59:05.006Z,99345.00
2022-08-06T04:01:43.066Z,99343.00
2022-08-06T04:04:26.745Z,99334.00
2022-08-06T04:07:00.629Z,99338.00
2022-08-06T04:09:58.498Z,99353.00
2022-08-06T04:12:58.791Z,99344.00
2022-08-06T04:15:17.440Z,99351.00
2022-08-06T04:17:50.328Z,99359.00
2022-08-06T04:20:41.742Z,99365.00
2022-08-06T04:23:15.666Z,99360.00
2022-08-06T04:26:14.777Z,99352.00
2022-08-06T04:28:53.250Z,99357.00
2022-08-06T04:32:13.320Z,99368.00
2022-08-06T04:34:27.318Z,99368.00
2022-08-06T04:37:02.024Z,99370.00
2022-08-06T04:39:38.456Z,99374.00
2022-08-06T04:42:21.101Z,99372.00
2022-08-06T04:44:59.977Z,99369.00
2022-08-06T04:47:42.180Z,99381.00
2022-08-06T04:50:23.892Z,99384.00
2022-08-06T04:53:07.802Z,99393.00
2022-08-06T04:55:39.613Z,99393.00
2022-08-06T04:58:14.663Z,99396.00
2022-08-06T05:01:01.052Z,99398.00
2022-08-06T05:04:05.929Z,99385.00
2022-08-06T05:06:58.838Z,99389.00
2022-08-06T05:09:42.185Z,99405.00
2022-08-06T05:12:28.528Z,99408.00
2022-08-06T05:15:31.504Z,99405.00
2022-08-06T05:19:20.556Z,99406.00
2022-08-06T05:21:12.282Z,99416.00
2022-08-06T05:23:49.740Z,99419.00
2022-08-06T05:26:26.401Z,99414.00
2022-08-06T05:28:57.728Z,99423.00
2022-08-06T05:31:41.007Z,99412.00
2022-08-06T05:34:19.641Z,99417.00
2022-08-06T05:36:51.821Z,99425.00
2022-08-06T05:39:57.281Z,99427.00
2022-08-06T05:42:14.943Z,99419.00
2022-08-06T05:44:55.579Z,99429.00
2022-08-06T05:47:47.707Z,99436.00
2022-08-06T05:50:33.670Z,99433.00
2022-08-06T05:53:12.202Z,99435.00
2022-08-06T05:55:55.910Z,99436.00
2022-08-06T05:58:54.687Z,99442.00
2022-08-06T06:01:26.784Z,99437.00
2022-08-06T06:03:58.923Z,99435.00
2022-08-06T06:06:31.469Z,99441.00
2022-08-06T06:09:02.835Z,99444.00
2022-08-06T06:11:54.675Z,99447.00
2022-08-06T06:14:43.082Z,99458.00
2022-08-06T06:17:39.611Z,99449.00
2022-08-06T06:21:03.993Z,99462.00
2022-08-06T06:23:46.012Z,99446.00
2022-08-06T06:26:35.084Z,99452.00
2022-08-06T06:30:05.553Z,99460.00
2022-08-06T06:32:56.576Z,99469.00
2022-08-06T06:35:57.547Z,99468.00
2022-08-06T06:38:56.517Z,99465.00
2022-08-06T06:41:53.304Z,99472.00
2022-08-06T06:46:04.542Z,99470.00
2022-08-06T06:48:11.019Z,99471.00
2022-08-06T06:50:48.482Z,99473.00
2022-08-06T06:53:23.895Z,99470.00
2022-08-06T06:56:02.633Z,99472.00
2022-08-06T06:58:47.329Z,99479.00
2022-08-06T07:01:28.184Z,99480.00
2022-08-06T07:04:05.710Z,99483.00
2022-08-06T07:06:44.222Z,99487.00
2022-08-06T07:09:41.666Z,99483.00
2022-08-06T07:12:20.034Z,99489.00
2022-08-06T07:15:00.930Z,99485.00
2022-08-06T07:17:45.237Z,99486.00
2022-08-06T07:20:30.178Z,99496.00
2022-08-06T07:24:07.057Z,99493.00
2022-08-06T07:26:00.500Z,99492.00
2022-08-06T07:28:32.143Z,99490.00
2022-08-06T07:31:07.012Z,99492.00
2022-08-06T07:34:00.817Z,99495.00
2022-08-06T07:36:56.920Z,99494.00
2022-08-06T07:39:35.515Z,99503.00
2022-08-06T07:42:16.476Z,99506.00
2022-08-06T07:44:58.332Z,99501.00
2022-08-06T07:47:54.683Z,99494.00
2022-08-06T07:50:28.702Z,99498.00
2022-08-06T07:53:00.914Z,99496.00
2022-08-06T07:55:40.735Z,99497.00
2022-08-06T07:58:16.453Z,99499.00
2022-08-06T08:00:50.992Z,99500.00
2022-08-06T08:03:57.019Z,99500.00
2022-08-06T08:06:36.172Z,99497.00
2022-08-06T08:09:19.890Z,99505.00
2022-08-06T08:12:25.808Z,99493.00
2022-08-06T08:14:53.583Z,99498.00
2022-08-06T08:17:34.626Z,99492.00
2022-08-06T08:20:11.326Z,99501.00
2022-08-06T08:22:50.472Z,99508.00
2022-08-06T08:25:40.536Z,99485.00
2022-08-06T08:28:16.769Z,99477.00
2022-08-06T08:30:49.855Z,99488.00
2022-08-06T08:33:21.759Z,99469.00
2022-08-06T08:36:00.738Z,99477.00
2022-08-06T08:38:34.926Z,99475.00
2022-08-06T08:41:48.912Z,99484.00
2022-08-06T08:44:26.608Z,99479.00
2022-08-06T08:47:00.293Z,99474.00
2022-08-06T08:49:47.016Z,99478.00
2022-08-06T08:52:23.454Z,99483.00
2022-08-06T08:54:59.661Z,99478.00
2022-08-06T08:58:37.616Z,99496.00
2022-08-06T09:00:26.819Z,99477.00
2022-08-06T09:03:00.084Z,99479.00
2022-08-06T09:05:34.531Z,99485.00
2022-08-06T09:08:06.959Z,99485.00
2022-08-06T09:10:52.103Z,99486.00
2022-08-06T09:13:50.746Z,99487.00
2022-08-06T09:16:31.998Z,99490.00
2022-08-06T09:19:06.285Z,99493.00
2022-08-06T09:21:43.475Z,99496.00
2022-08-06T09:24:15.182Z,99492.00
2022-08-06T09:27:47.277Z,99496.00
2022-08-06T09:30:25.342Z,99498.00
2022-08-06T09:33:03.943Z,99507.00
2022-08-06T09:35:44.156Z,99501.00
2022-08-06T09:38:18.066Z,99493.00
2022-08-06T09:41:14.940Z,99504.00
2022-08-06T09:44:04.072Z,99497.00
2022-08-06T09:46:48.975Z,99496.00
2022-08-06T09:49:47.567Z,99494.00
2022-08-06T09:52:20.131Z,99496.00
2022-08-06T09:54:54.049Z,99488.00
2022-08-06T09:57:29.172Z,99488.00
2022-08-06T10:00:14.495Z,99493.00
2022-08-06T10:02:51.694Z,99497.00
2022-08-06T10:05:25.374Z,99493.00
2022-08-06T10:08:14.507Z,99489.00
2022-08-06T10:10:52.278Z,99493.00
2022-08-06T10:13:39.265Z,99492.00
2022-08-06T10:16:31.009Z,99490.00
2022-08-06T10:19:18.210Z,99494.00
2022-08-06T10:21:50.868Z,99493.00
2022-08-06T10:24:25.944Z,99492.00
2022-08-06T10:27:19.076Z,99500.00
2022-08-06T10:29:55.663Z,99493.00
2022-08-06T10:32:50.101Z,99493.00
2022-08-06T10:35:25.554Z,99483.00
2022-08-06T10:38:14.625Z,99489.00
2022-08-06T10:40:57.286Z,99505.00
2022-08-06T10:43:34.480Z,99493.00
2022-08-06T10:46:11.565Z,99484.00
2022-08-06T10:48:58.742Z,99487.00
2022-08-06T10:51:56.741Z,99487.00
2022-08-06T10:54:28.689Z,99486.00
2022-08-06T10:57:01.766Z,99480.00
2022-08-06T10:59:41.304Z,99483.00
2022-08-06T11:02:36.833Z,99481.00
2022-08-06T11:05:25.417Z,99472.00
2022-08-06T11:08:49.286Z,99476.00
2022-08-06T11:12:35.544Z,99472.00
2022-08-06T11:15:08.822Z,99479.00
2022-08-06T11:18:07.797Z,99483.00
2022-08-06T11:20:49.152Z,99469.00
2022-08-06T11:23:52.946Z,99471.00
2022-08-06T11:26:13.490Z,99467.00
2022-08-06T11:28:50.708Z,99465.00
2022-08-06T11:31:43.388Z,99482.00
2022-08-06T11:34:51.078Z,99460.00
2022-08-06T11:38:00.165Z,99461.00
2022-08-06T11:41:06.090Z,99454.00
2022-08-06T11:44:02.904Z,99455.00
2022-08-06T11:46:47.936Z,99453.00
2022-08-06T11:49:24.701Z,99454.00
2022-08-06T11:52:06.899Z,99447.00
2022-08-06T11:55:01.106Z,99442.00
2022-08-06T11:57:41.565Z,99440.00
2022-08-06T12:00:23.609Z,99440.00
2022-08-06T12:02:56.871Z,99439.00
2022-08-06T12:05:28.181Z,99432.00
2022-08-06T12:08:42.546Z,99427.00
2022-08-06T12:11:35.932Z,99427.00
2022-08-06T12:14:54.781Z,99431.00
2022-08-06T12:17:31.402Z,99426.00
2022-08-06T12:20:35.934Z,99424.00
2022-08-06T12:23:17.523Z,99427.00
2022-08-06T12:25:54.801Z,99423.00
2022-08-06T12:28:26.679Z,99421.00
2022-08-06T12:30:57.539Z,99421.00
2022-08-06T12:33:28.452Z,99412.00
2022-08-06T12:36:02.098Z,99410.00
2022-08-06T12:38:35.725Z,99408.00
2022-08-06T12:41:10.961Z,99406.00
2022-08-06T12:43:56.674Z,99400.00
2022-08-06T12:46:29.135Z,99397.00
2022-08-06T12:49:03.632Z,99396.00
2022-08-06T12:51:35.125Z,99394.00
2022-08-06T12:54:08.538Z,99392.00
2022-08-06T12:56:41.094Z,99382.00
2022-08-06T12:59:23.617Z,99371.00
2022-08-06T13:02:10.545Z,99374.00
2022-08-06T13:04:49.786Z,99380.00
2022-08-06T13:07:21.299Z,99385.00
2022-08-06T13:10:32.918Z,99372.00
2022-08-06T13:14:02.217Z,99370.00
2022-08-06T13:15:48.075Z,99373.00
2022-08-06T13:18:40.581Z,99369.00
2022-08-06T13:21:22.136Z,99370.00
2022-08-06T13:23:54.171Z,99356.00
2022-08-06T13:26:31.065Z,99354.00
2022-08-06T13:30:35.360Z,99362.00
2022-08-06T13:32:32.172Z,99351.00
2022-08-06T13:35:16.760Z,99358.00
2022-08-06T13:37:56.903Z,99362.00
2022-08-06T13:40:57.166Z,99350.00
2022-08-06T13:43:53.386Z,99345.00
2022-08-06T13:46:32.932Z,99351.00
2022-08-06T13:49:04.607Z,99343.00
2022-08-06T13:51:48.984Z,99355.00
2022-08-06T13:54:26.362Z,99335.00
2022-08-06T13:57:00.025Z,99337.00
2022-08-06T13:59:40.551Z,99330.00
2022-08-06T14:02:13.878Z,99342.00
2022-08-06T14:04:50.652Z,99340.00
2022-08-06T14:07:22.131Z,99335.00
2022-08-06T14:10:08.770Z,99330.00
2022-08-06T14:12:41.053Z,99331.00
2022-08-06T14:15:15.268Z,99326.00
2022-08-06T14:17:46.298Z,99331.00
2022-08-06T14:20:23.786Z,99353.00
2022-08-06T14:22:57.083Z,99325.00
2022-08-06T14:25:46.484Z,99329.00
2022-08-06T14:28:21.375Z,99320.00
2022-08-06T14:30:52.661Z,99309.00
2022-08-06T14:33:38.416Z,99314.00
2022-08-06T14:36:09.677Z,99307.00
2022-08-06T14:38:42.462Z,99311.00
2022-08-06T14:41:49.883Z,99317.00
2022-08-06T14:44:40.937Z,99316.00
2022-08-06T14:47:19.892Z,99297.00
2022-08-06T14:50:06.936Z,99299.00
2022-08-06T14:52:38.852Z,99319.00
2022-08-06T14:55:10.843Z,99293.00
2022-08-06T14:58:04.759Z,99293.00
2022-08-06T15:00:37.975Z,99291.00
2022-08-06T15:03:13.709Z,99289.00
2022-08-06T15:06:04.742Z,99284.00
2022-08-06T15:08:37.600Z,99289.00
2022-08-06T15:11:19.839Z,99288.00
2022-08-06T15:13:53.963Z,99278.00
2022-08-06T15:16:47.269Z,99283.00
2022-08-06T15:19:20.423Z,99280.00
2022-08-06T15:22:00.856Z,99280.00
2022-08-06T15:24:33.720Z,99276.00
2022-08-06T15:27:09.059Z,99269.00
2022-08-06T15:29:40.224Z,99277.00
2022-08-06T15:32:17.866Z,99272.00
2022-08-06T15:34:51.295Z,99277.00
2022-08-06T15:37:56.453Z,99272.00
2022-08-06T15:40:13.537Z,99268.00
2022-08-06T15:42:45.089Z,99269.00
2022-08-06T15:45:49.824Z,99284.00
2022-08-06T15:48:07.315Z,99270.00
2022-08-06T15:50:59.538Z,99268.00
2022-08-06T15:53:38.408Z,99288.00
2022-08-06T15:56:14.326Z,99273.00
2022-08-06T15:58:48.639Z,99270.00
2022-08-06T16:01:33.681Z,99267.00
2022-08-06T16:04:06.873Z,99268.00
2022-08-06T16:06:37.762Z,99268.00
2022-08-06T16:09:12.183Z,99266.00
2022-08-06T16:11:50.981Z,99261.00
2022-08-06T16:14:33.690Z,99264.00
2022-08-06T16:17:09.548Z,99261.00
2022-08-06T16:19:49.314Z,99259.00
2022-08-06T16:22:22.038Z,99261.00
2022-08-06T16:24:53.054Z,99258.00
2022-08-06T16:27:27.254Z,99258.00
2022-08-06T16:30:10.631Z,99254.00
2022-08-06T16:32:41.649Z,99251.00
2022-08-06T16:35:21.882Z,99262.00
2022-08-06T16:37:55.334Z,99256.00
2022-08-06T16:40:27.263Z,99259.00
2022-08-06T16:42:58.368Z,99247.00
2022-08-06T16:45:37.092Z,99247.00
2022-08-06T16:48:22.337Z,99236.00
2022-08-06T16:51:02.314Z,99244.00
2022-08-06T16:54:13.429Z,99243.00
2022-08-06T16:56:25.637Z,99238.00
2022-08-06T16:58:56.721Z,99235.00
2022-08-06T17:02:14.230Z,99238.00
2022-08-06T17:04:21.601Z,99236.00
2022-08-06T17:06:58.615Z,99234.00
2022-08-06T17:09:29.656Z,99241.00
2022-08-06T17:12:19.342Z,99242.00
2022-08-06T17:17:41.910Z,99235.00
2022-08-06T17:20:19.455Z,99242.00
2022-08-06T17:22:53.313Z,99249.00
2022-08-06T17:25:24.304Z,99240.00
2022-08-06T17:28:15.763Z,99242.00
2022-08-06T17:30:52.193Z,99242.00
2022-08-06T17:33:23.378Z,99248.00
2022-08-06T17:38:45.215Z,99238.00
2022-08-06T17:41:16.752Z,99237.00
2022-08-06T17:43:54.850Z,99235.00
2022-08-06T17:46:33.607Z,99234.00
2022-08-06T17:49:07.752Z,99246.00
2022-08-06T17:51:38.744Z,99240.00
2022-08-06T17:54:44.154Z,99242.00
2022-08-06T17:57:01.836Z,99238.00
2022-08-06T17:59:33.151Z,99242.00
2022-08-06T18:02:04.182Z,99265.00
2022-08-06T18:04:40.301Z,99239.00
2022-08-06T18:08:06.969Z,99239.00
2022-08-06T18:10:28.583Z,99246.00
2022-08-06T18:13:02.760Z,99246.00
2022-08-06T18:15:40.909Z,99248.00
2022-08-06T18:18:21.328Z,99253.00
2022-08-06T18:20:53.109Z,99262.00
2022-08-06T18:23:24.354Z,99260.00
2022-08-06T18:25:59.858Z,99261.00
2022-08-06T18:28:49.749Z,99261.00
2022-08-06T18:31:22.203Z,99259.00
2022-08-06T18:33:53.763Z,99274.00
2022-08-06T18:36:32.700Z,99270.00
2022-08-06T18:39:13.454Z,99277.00
2022-08-06T18:41:57.155Z,99281.00
2022-08-06T18:44:29.011Z,99282.00
2022-08-06T18:47:03.746Z,99282.00
2022-08-06T18:49:50.959Z,99293.00
2022-08-06T18:52:25.606Z,99305.00
2022-08-06T18:54:59.382Z,99291.00
2022-08-06T18:57:37.915Z,99286.00
2022-08-06T19:00:33.345Z,99291.00
2022-08-06T19:03:11.133Z,99293.00
2022-08-06T19:05:50.545Z,99292.00
2022-08-06T19:08:29.308Z,99298.00
2022-08-06T19:11:05.987Z,99300.00
2022-08-06T19:14:16.800Z,99312.00
2022-08-06T19:16:30.415Z,99306.00
2022-08-06T19:19:01.409Z,99306.00
2022-08-06T19:21:33.185Z,99306.00
2022-08-06T19:24:06.736Z,99314.00
2022-08-06T19:26:38.208Z,99309.00
2022-08-06T19:29:11.566Z,99299.00
2022-08-06T19:31:56.062Z,99299.00
2022-08-06T19:34:28.078Z,99299.00
2022-08-06T19:37:03.702Z,99300.00
2022-08-06T19:39:53.825Z,99304.00
2022-08-06T19:42:32.569Z,99294.00
2022-08-06T19:45:16.802Z,99310.00
2022-08-06T19:47:49.055Z,99294.00
2022-08-06T19:50:20.387Z,99304.00
2022-08-06T19:52:53.202Z,99305.00
2022-08-06T19:56:09.025Z,99305.00
2022-08-06T19:58:26.544Z,99313.00
2022-08-06T20:01:31.864Z,99312.00
2022-08-06T20:04:01.766Z,99311.00
2022-08-06T20:06:54.655Z,99308.00
2022-08-06T20:09:41.871Z,99316.00
2022-08-06T20:12:19.756Z,99313.00
2022-08-06T20:14:50.686Z,99311.00
2022-08-06T20:17:21.788Z,99318.00
2022-08-06T20:20:05.300Z,99319.00
2022-08-06T20:22:41.903Z,99319.00
2022-08-06T20:25:18.452Z,99315.00
2022-08-06T20:29:10.181Z,99315.00
2022-08-06T20:30:52.696Z,99313.00
2022-08-06T20:33:26.960Z,99343.00
2022-08-06T20:36:00.755Z,99307.00
2022-08-06T20:38:43.245Z,99312.00
2022-08-06T20:41:58.682Z,99318.00
2022-08-06T20:44:08.541Z,99318.00
2022-08-06T20:47:01.108Z,99315.00
2022-08-06T20:50:01.873Z,99311.00
2022-08-06T20:52:25.070Z,99309.00
2022-08-06T20:55:01.055Z,99314.00
2022-08-06T20:57:37.348Z,99318.00
2022-08-06T21:00:19.179Z,99323.00
2022-08-06T21:03:27.922Z,99312.00
2022-08-06T21:05:52.299Z,99313.00
2022-08-06T21:08:26.074Z,99323.00
2022-08-06T21:11:00.328Z,99312.00
2022-08-06T21:13:36.262Z,99313.00
2022-08-06T21:16:28.633Z,99318.00
2022-08-06T21:19:07.013Z,99316.00
2022-08-06T21:21:40.301Z,99321.00
2022-08-06T21:24:12.699Z,99314.00
2022-08-06T21:26:50.807Z,99308.00
2022-08-06T21:30:07.905Z,99317.00
2022-08-06T21:32:13.710Z,99316.00
2022-08-06T21:35:03.921Z,99319.00
2022-08-06T21:37:42.712Z,99316.00
2022-08-06T21:40:26.359Z,99318.00
2022-08-06T21:43:04.593Z,99320.00
2022-08-06T21:45:58.584Z,99324.00
2022-08-06T21:48:30.163Z,99317.00
2022-08-06T21:51:01.488Z,99320.00
2022-08-06T21:53:49.419Z,99310.00
2022-08-06T21:56:37.980Z,99313.00
2022-08-06T21:59:15.177Z,99316.00
2022-08-06T22:02:18.549Z,99318.00
2022-08-06T22:04:51.865Z,99317.00
2022-08-06T22:08:06.277Z,99309.00
2022-08-06T22:10:31.833Z,99311.00
2022-08-06T22:13:12.712Z,99315.00
2022-08-06T22:15:48.404Z,99318.00
2022-08-06T22:18:28.941Z,99324.00
2022-08-06T22:21:00.809Z,99318.00
2022-08-06T22:23:34.543Z,99322.00
2022-08-06T22:26:05.949Z,99322.00
2022-08-06T22:28:41.188Z,99316.00
2022-08-06T22:31:14.881Z,99320.00
2022-08-06T22:34:01.181Z,99321.00
2022-08-06T22:36:35.814Z,99316.00
2022-08-06T22:39:07.943Z,99316.00
2022-08-06T22:41:42.329Z,99312.00
2022-08-06T22:44:34.294Z,99312.00
2022-08-06T22:47:10.343Z,99304.00
2022-08-06T22:50:00.724Z,99306.00
2022-08-06T22:52:59.336Z,99304.00
2022-08-06T22:55:24.991Z,99297.00
2022-08-06T22:58:04.096Z,99293.00
2022-08-06T23:00:57.967Z,99294.00
2022-08-06T23:03:29.345Z,99294.00
2022-08-06T23:06:01.682Z,99309.00
2022-08-06T23:08:32.655Z,99298.00
2022-08-06T23:11:04.707Z,99295.00
2022-08-06T23:13:38.628Z,99282.00
2022-08-06T23:16:20.745Z,99290.00
2022-08-06T23:18:59.108Z,99282.00
2022-08-06T23:21:50.324Z,99273.00
2022-08-06T23:24:32.876Z,99287.00
2022-08-06T23:27:17.201Z,99288.00
2022-08-06T23:30:09.742Z,99283.00
2022-08-06T23:32:40.800Z,99273.00
2022-08-06T23:35:36.443Z,99293.00
2022-08-06T23:38:30.949Z,99285.00
2022-08-06T23:40:55.344Z,99266.00
2022-08-06T23:43:34.643Z,99277.00
2022-08-06T23:46:06.107Z,99274.00
2022-08-06T23:48:37.091Z,99277.00
2022-08-06T23:51:12.597Z,99281.00
2022-08-06T23:54:05.928Z,99285.00
2022-08-06T23:56:36.043Z,99279.00
2022-08-06T23:59:12.625Z,99287.00
